Time,TemperatureF,DewpointF,PressureIn,WindDirection,WindDirectionDegrees,WindSpeedMPH,WindSpeedGustMPH,Humidity,HourlyPrecipIn,Conditions,Clouds,dailyrainin,SolarRadiationWatts/m^2,SoftwareType,DateUTC
2013-07-24 00:34:00,94.0,65.0,-100.00,SSW,200,8.0,16.0,39,0.00,,,0.00,353.000000,,2013-07-24 00:34:00,
2013-07-24 00:50:00,94.0,65.0,-100.00,SSW,200,8.0,16.0,39,0.00,,,0.00,353.000000,,2013-07-24 00:50:00,
2013-07-24 00:58:00,94.0,65.0,-100.00,SSW,200,8.0,16.0,39,0.00,,,0.00,353.000000,,2013-07-24 00:58:00,
2013-07-24 01:04:00,94.0,65.0,-100.00,SSW,200,8.0,16.0,39,0.00,,,0.00,353.000000,,2013-07-24 01:04:00,
2013-07-24 01:47:00,91.0,63.0,-100.00,SSW,192,8.0,13.0,39,0.00,,,0.00,146.000000,,2013-07-24 01:47:00,
2013-07-24 02:00:00,91.0,63.0,-100.00,SSW,192,8.0,13.0,39,0.00,,,0.00,146.000000,,2013-07-24 02:00:00,
2013-07-24 02:40:00,86.0,65.0,-100.00,SSW,196,4.0,9.0,50,0.00,,,0.00,13.000000,,2013-07-24 02:40:00,
2013-07-24 02:48:00,86.0,65.0,-100.00,SSW,196,4.0,9.0,50,0.00,,,0.00,13.000000,,2013-07-24 02:48:00,
2013-07-24 02:56:00,86.0,65.0,-100.00,SSW,196,4.0,9.0,50,0.00,,,0.00,13.000000,,2013-07-24 02:56:00,
2013-07-24 03:02:00,86.0,65.0,-100.00,SSW,196,4.0,9.0,50,0.00,,,0.00,13.000000,,2013-07-24 03:02:00,
2013-07-24 03:39:00,83.0,68.0,-100.00,South,174,1.0,5.0,60,0.00,,,0.00,0.000000,,2013-07-24 03:39:00,
2013-07-24 03:46:00,83.0,68.0,-100.00,South,174,1.0,5.0,60,0.00,,,0.00,0.000000,,2013-07-24 03:46:00,
2013-07-24 04:01:00,83.0,68.0,-100.00,South,174,1.0,5.0,60,0.00,,,0.00,0.000000,,2013-07-24 04:01:00,
2013-07-24 04:32:00,80.0,66.0,-100.00,SE,141,5.0,6.0,63,0.00,,,0.00,0.000000,,2013-07-24 04:32:00,
2013-07-24 04:43:00,80.0,66.0,-100.00,SE,141,5.0,6.0,63,0.00,,,0.00,0.000000,,2013-07-24 04:43:00,
2013-07-24 04:53:00,80.0,66.0,-100.00,SE,141,5.0,6.0,63,0.00,,,0.00,0.000000,,2013-07-24 04:53:00,
2013-07-24 05:02:00,80.0,66.0,-100.00,SE,141,5.0,6.0,63,0.00,,,0.00,0.000000,,2013-07-24 05:02:00,
2013-07-24 05:33:00,79.0,68.0,-100.00,SE,126,5.0,6.0,69,0.00,,,0.00,0.000000,,2013-07-24 05:33:00,
2013-07-24 05:43:00,79.0,68.0,-100.00,SE,126,5.0,6.0,69,0.00,,,0.00,0.000000,,2013-07-24 05:43:00,
2013-07-24 05:52:00,79.0,68.0,-100.00,SE,126,5.0,6.0,69,0.00,,,0.00,0.000000,,2013-07-24 05:52:00,
2013-07-24 06:01:00,79.0,68.0,-100.00,SE,126,5.0,6.0,69,0.00,,,0.00,0.000000,,2013-07-24 06:01:00,
2013-07-24 06:34:00,78.0,67.0,-100.00,SSE,160,5.0,8.0,69,0.00,,,0.00,0.000000,,2013-07-24 06:34:00,
2013-07-24 06:43:00,78.0,67.0,-100.00,SSE,160,5.0,8.0,69,0.00,,,0.00,0.000000,,2013-07-24 06:43:00,
2013-07-24 06:53:00,78.0,67.0,-100.00,SSE,160,5.0,8.0,69,0.00,,,0.00,0.000000,,2013-07-24 06:53:00,
2013-07-24 07:02:00,78.0,67.0,-100.00,SSE,160,5.0,8.0,69,0.00,,,0.00,0.000000,,2013-07-24 07:02:00,
2013-07-24 07:32:00,77.0,61.0,-100.00,ESE,118,2.0,8.0,57,0.00,,,-99.99,0.000000,,2013-07-24 07:32:00,
2013-07-24 07:43:00,77.0,61.0,-100.00,ESE,118,2.0,8.0,57,0.00,,,-99.99,0.000000,,2013-07-24 07:43:00,
2013-07-24 07:53:00,77.0,61.0,-100.00,ESE,118,2.0,8.0,57,0.00,,,-99.99,0.000000,,2013-07-24 07:53:00,
2013-07-24 08:02:00,77.0,61.0,-100.00,ESE,118,2.0,8.0,57,0.00,,,-99.99,0.000000,,2013-07-24 08:02:00,
2013-07-24 08:32:00,76.0,66.0,-100.00,ESE,117,6.0,7.0,72,0.00,,,0.00,0.000000,,2013-07-24 08:32:00,
2013-07-24 08:43:00,76.0,66.0,-100.00,ESE,117,6.0,7.0,72,0.00,,,0.00,0.000000,,2013-07-24 08:43:00,
2013-07-24 08:52:00,76.0,66.0,-100.00,ESE,117,6.0,7.0,72,0.00,,,0.00,0.000000,,2013-07-24 08:52:00,
2013-07-24 09:02:00,76.0,66.0,-100.00,ESE,117,6.0,7.0,72,0.00,,,0.00,0.000000,,2013-07-24 09:02:00,
2013-07-24 09:32:00,73.0,65.0,-100.00,ESE,121,4.0,7.0,77,0.00,,,0.00,0.000000,,2013-07-24 09:32:00,
2013-07-24 09:43:00,73.0,65.0,-100.00,ESE,121,4.0,7.0,77,0.00,,,0.00,0.000000,,2013-07-24 09:43:00,
2013-07-24 09:53:00,73.0,65.0,-100.00,ESE,121,4.0,7.0,77,0.00,,,0.00,0.000000,,2013-07-24 09:53:00,
2013-07-24 10:02:00,73.0,65.0,-100.00,ESE,121,4.0,7.0,77,0.00,,,0.00,0.000000,,2013-07-24 10:02:00,
2013-07-24 10:33:00,73.0,66.0,-100.00,ESE,123,5.0,6.0,78,0.00,,,0.00,0.000000,,2013-07-24 10:33:00,
2013-07-24 10:43:00,73.0,66.0,-100.00,ESE,123,5.0,6.0,78,0.00,,,0.00,0.000000,,2013-07-24 10:43:00,
2013-07-24 10:53:00,73.0,66.0,-100.00,ESE,123,5.0,6.0,78,0.00,,,0.00,0.000000,,2013-07-24 10:53:00,
2013-07-24 11:02:00,73.0,66.0,-100.00,ESE,123,5.0,6.0,78,0.00,,,0.00,0.000000,,2013-07-24 11:02:00,
2013-07-24 11:32:00,73.0,65.0,-100.00,ESE,105,4.0,6.0,77,0.00,,,0.00,0.000000,,2013-07-24 11:32:00,
2013-07-24 11:44:00,73.0,65.0,-100.00,ESE,105,4.0,6.0,77,0.00,,,0.00,0.000000,,2013-07-24 11:44:00,
2013-07-24 11:52:00,73.0,65.0,-100.00,ESE,105,4.0,6.0,77,0.00,,,0.00,0.000000,,2013-07-24 11:52:00,
2013-07-24 12:02:00,73.0,65.0,-100.00,ESE,105,4.0,6.0,77,0.00,,,0.00,0.000000,,2013-07-24 12:02:00,
2013-07-24 12:32:00,72.0,66.0,-100.00,SE,142,4.0,6.0,81,0.00,,,0.00,1.000000,,2013-07-24 12:32:00,
2013-07-24 12:42:00,72.0,66.0,-100.00,SE,142,4.0,6.0,81,0.00,,,0.00,1.000000,,2013-07-24 12:42:00,
2013-07-24 12:52:00,72.0,66.0,-100.00,SE,142,4.0,6.0,81,0.00,,,0.00,1.000000,,2013-07-24 12:52:00,
2013-07-24 13:02:00,72.0,66.0,-100.00,SE,142,4.0,6.0,81,0.00,,,0.00,1.000000,,2013-07-24 13:02:00,
2013-07-24 13:32:00,77.0,71.0,-100.00,East,79,4.0,5.0,81,0.00,,,0.00,92.000000,,2013-07-24 13:32:00,
2013-07-24 13:43:00,77.0,71.0,-100.00,East,79,4.0,5.0,81,0.00,,,0.00,92.000000,,2013-07-24 13:43:00,
2013-07-24 13:53:00,77.0,71.0,-100.00,East,79,4.0,5.0,81,0.00,,,0.00,92.000000,,2013-07-24 13:53:00,
2013-07-24 14:02:00,77.0,71.0,-100.00,East,79,4.0,5.0,81,0.00,,,0.00,92.000000,,2013-07-24 14:02:00,
2013-07-24 14:32:00,81.0,72.0,-100.00,SE,136,3.0,7.0,75,0.00,,,0.00,295.000000,,2013-07-24 14:32:00,
2013-07-24 14:43:00,81.0,72.0,-100.00,SE,136,3.0,7.0,75,0.00,,,0.00,295.000000,,2013-07-24 14:43:00,
2013-07-24 14:55:00,81.0,72.0,-100.00,SE,136,3.0,7.0,75,0.00,,,0.00,295.000000,,2013-07-24 14:55:00,
2013-07-24 15:02:00,81.0,72.0,-100.00,SE,136,3.0,7.0,75,0.00,,,0.00,295.000000,,2013-07-24 15:02:00,
2013-07-24 15:33:00,84.0,73.0,-100.00,SSE,159,6.0,10.0,69,0.00,,,0.00,522.000000,,2013-07-24 15:33:00,
2013-07-24 15:43:00,84.0,73.0,-100.00,SSE,159,6.0,10.0,69,0.00,,,0.00,522.000000,,2013-07-24 15:43:00,
2013-07-24 15:53:00,84.0,73.0,-100.00,SSE,159,6.0,10.0,69,0.00,,,0.00,522.000000,,2013-07-24 15:53:00,
2013-07-24 16:02:00,84.0,73.0,-100.00,SSE,159,6.0,10.0,69,0.00,,,0.00,522.000000,,2013-07-24 16:02:00,
2013-07-24 16:33:00,88.0,74.0,-100.00,SE,144,4.0,11.0,63,0.00,,,0.00,658.000000,,2013-07-24 16:33:00,
2013-07-24 16:43:00,88.0,74.0,-100.00,SE,144,4.0,11.0,63,0.00,,,0.00,658.000000,,2013-07-24 16:43:00,
2013-07-24 16:53:00,88.0,74.0,-100.00,SE,144,4.0,11.0,63,0.00,,,0.00,658.000000,,2013-07-24 16:53:00,
2013-07-24 17:02:00,88.0,74.0,-100.00,SE,144,4.0,11.0,63,0.00,,,0.00,658.000000,,2013-07-24 17:02:00,
2013-07-24 17:33:00,89.0,73.0,-100.00,SSE,157,8.0,15.0,59,0.00,,,-99.99,717.000000,,2013-07-24 17:33:00,
2013-07-24 17:43:00,89.0,73.0,-100.00,SSE,157,8.0,15.0,59,0.00,,,-99.99,717.000000,,2013-07-24 17:43:00,
2013-07-24 17:53:00,89.0,73.0,-100.00,SSE,157,8.0,15.0,59,0.00,,,-99.99,717.000000,,2013-07-24 17:53:00,
2013-07-24 18:02:00,89.0,73.0,-100.00,SSE,157,8.0,15.0,59,0.00,,,-99.99,717.000000,,2013-07-24 18:02:00,
2013-07-24 19:33:00,94.0,69.0,-100.00,SE,143,10.0,14.0,44,0.00,,,0.00,1005.000000,,2013-07-24 19:33:00,
2013-07-24 19:43:00,94.0,69.0,-100.00,SE,143,10.0,14.0,44,0.00,,,0.00,1005.000000,,2013-07-24 19:43:00,
2013-07-24 19:53:00,94.0,69.0,-100.00,SE,143,10.0,14.0,44,0.00,,,0.00,1005.000000,,2013-07-24 19:53:00,
2013-07-24 20:02:00,94.0,69.0,-100.00,SE,143,10.0,14.0,44,0.00,,,0.00,1005.000000,,2013-07-24 20:02:00,
2013-07-24 20:33:00,96.0,65.0,-100.00,SE,136,7.0,14.0,37,0.00,,,-99.99,1013.000000,,2013-07-24 20:33:00,
2013-07-24 20:43:00,96.0,65.0,-100.00,SE,136,7.0,14.0,37,0.00,,,-99.99,1013.000000,,2013-07-24 20:43:00,
2013-07-24 20:53:00,96.0,65.0,-100.00,SE,136,7.0,14.0,37,0.00,,,-99.99,1013.000000,,2013-07-24 20:53:00,
2013-07-24 21:02:00,96.0,65.0,-100.00,SE,136,7.0,14.0,37,0.00,,,-99.99,1013.000000,,2013-07-24 21:02:00,
2013-07-24 21:32:00,97.0,65.0,-100.00,SSE,154,9.0,16.0,35,0.00,,,0.00,936.000000,,2013-07-24 21:32:00,
2013-07-24 21:44:00,97.0,65.0,-100.00,SSE,154,9.0,16.0,35,0.00,,,0.00,936.000000,,2013-07-24 21:44:00,
2013-07-24 21:53:00,97.0,65.0,-100.00,SSE,154,9.0,16.0,35,0.00,,,0.00,936.000000,,2013-07-24 21:53:00,
2013-07-24 22:02:00,97.0,65.0,-100.00,SSE,154,9.0,16.0,35,0.00,,,0.00,936.000000,,2013-07-24 22:02:00,
2013-07-24 22:32:00,97.0,65.0,-100.00,SE,141,6.0,14.0,35,0.00,,,0.00,712.000000,,2013-07-24 22:32:00,
2013-07-24 22:43:00,97.0,65.0,-100.00,SE,141,6.0,14.0,35,0.00,,,0.00,712.000000,,2013-07-24 22:43:00,
2013-07-24 22:53:00,97.0,65.0,-100.00,SE,141,6.0,14.0,35,0.00,,,0.00,712.000000,,2013-07-24 22:53:00,
2013-07-24 23:02:00,97.0,65.0,-100.00,SE,141,6.0,14.0,35,0.00,,,0.00,712.000000,,2013-07-24 23:02:00,
2013-07-24 23:33:00,98.0,66.0,-100.00,SSE,147,6.0,11.0,35,0.00,,,0.00,468.000000,,2013-07-24 23:33:00,
2013-07-24 23:43:00,98.0,66.0,-100.00,SSE,147,6.0,11.0,35,0.00,,,0.00,468.000000,,2013-07-24 23:43:00,
2013-07-24 23:52:00,98.0,66.0,-100.00,SSE,147,6.0,11.0,35,0.00,,,0.00,468.000000,,2013-07-24 23:52:00,